createdAt,value
2023-01-19T00:01:07.148Z,3.40
2023-01-19T00:03:42.307Z,4.62
2023-01-19T00:10:24.507Z,4.50
2023-01-19T00:13:06.737Z,9.68
2023-01-19T00:16:01.643Z,6.10
2023-01-19T00:18:39.232Z,4.50
2023-01-19T00:21:10.945Z,4.80
2023-01-19T00:23:54.700Z,4.20
2023-01-19T00:26:27.970Z,3.90
2023-01-19T00:28:56.721Z,3.62
2023-01-19T00:31:25.151Z,3.30
2023-01-19T00:33:53.193Z,3.35
2023-01-19T00:36:21.193Z,3.20
2023-01-19T00:38:49.106Z,3.25
2023-01-19T00:41:28.822Z,3.17
2023-01-19T00:43:58.536Z,4.10
2023-01-19T00:46:27.707Z,4.55
2023-01-19T00:49:00.877Z,4.95
2023-01-19T00:51:32.654Z,4.60
2023-01-19T00:54:02.490Z,3.77
2023-01-19T00:56:31.865Z,3.12
2023-01-19T00:59:00.171Z,3.08
2023-01-19T01:01:45.173Z,3.17
2023-01-19T01:04:23.570Z,2.77
2023-01-19T01:07:05.346Z,2.85
2023-01-19T01:09:45.753Z,3.67
2023-01-19T01:12:30.040Z,4.20
2023-01-19T01:15:08.362Z,5.45
2023-01-19T01:17:52.132Z,8.58
2023-01-19T01:20:26.600Z,5.95
2023-01-19T01:22:56.061Z,6.23
2023-01-19T01:25:27.108Z,6.75
2023-01-19T01:27:55.193Z,6.55
2023-01-19T01:30:23.895Z,4.90
2023-01-19T01:32:52.032Z,4.20
2023-01-19T01:35:20.204Z,3.92
2023-01-19T01:37:48.332Z,3.22
2023-01-19T01:40:18.932Z,3.00
2023-01-19T01:42:47.168Z,3.15
2023-01-19T01:45:40.008Z,3.72
2023-01-19T01:48:22.814Z,4.22
2023-01-19T01:51:26.191Z,4.58
2023-01-19T01:54:06.722Z,4.45
2023-01-19T01:56:43.090Z,4.90
2023-01-19T01:59:25.460Z,5.22
2023-01-19T02:02:14.834Z,4.90
2023-01-19T02:05:01.417Z,4.97
2023-01-19T02:08:22.788Z,4.62
2023-01-19T02:11:14.326Z,5.00
2023-01-19T02:13:47.571Z,4.85
2023-01-19T02:16:17.973Z,4.40
2023-01-19T02:18:46.658Z,3.20
2023-01-19T02:21:31.895Z,3.50
2023-01-19T02:24:02.648Z,3.00
2023-01-19T02:26:38.146Z,3.25
2023-01-19T02:29:16.655Z,2.87
2023-01-19T02:31:45.804Z,3.05
2023-01-19T02:34:20.206Z,3.10
2023-01-19T02:37:00.540Z,3.55
2023-01-19T02:39:38.681Z,5.65
2023-01-19T02:42:15.051Z,6.40
2023-01-19T02:44:48.134Z,6.75
2023-01-19T02:47:16.566Z,5.55
2023-01-19T02:49:44.661Z,4.87
2023-01-19T02:52:18.137Z,4.62
2023-01-19T02:55:06.781Z,4.40
2023-01-19T02:57:43.426Z,3.90
2023-01-19T03:00:32.219Z,4.90
2023-01-19T03:03:21.974Z,4.67
2023-01-19T03:06:06.046Z,3.98
2023-01-19T03:09:05.824Z,3.92
2023-01-19T03:11:38.780Z,4.22
2023-01-19T03:14:11.865Z,3.90
2023-01-19T03:16:53.033Z,3.83
2023-01-19T03:19:37.830Z,3.80
2023-01-19T03:22:14.241Z,3.83
2023-01-19T03:24:54.921Z,4.53
2023-01-19T03:27:32.322Z,4.30
2023-01-19T03:30:13.031Z,4.75
2023-01-19T03:32:53.697Z,4.55
2023-01-19T03:35:26.424Z,4.45
2023-01-19T03:37:57.739Z,4.67
2023-01-19T03:40:29.546Z,4.03
2023-01-19T03:43:00.135Z,4.60
2023-01-19T03:45:30.480Z,4.45
2023-01-19T03:48:00.196Z,3.77
2023-01-19T03:50:30.516Z,4.70
2023-01-19T03:53:12.137Z,5.75
2023-01-19T03:55:43.396Z,5.83
2023-01-19T03:58:11.765Z,5.60
2023-01-19T04:00:55.676Z,5.95
2023-01-19T04:03:53.663Z,8.35
2023-01-19T04:06:41.815Z,6.87
2023-01-19T04:09:35.252Z,6.95
2023-01-19T04:15:19.951Z,9.40
2023-01-19T04:17:47.972Z,9.83
2023-01-19T04:20:16.402Z,10.08
2023-01-19T04:22:44.415Z,9.15
2023-01-19T04:25:12.510Z,8.03
2023-01-19T04:27:40.502Z,6.55
2023-01-19T04:30:10.054Z,6.60
2023-01-19T04:32:38.310Z,7.22
2023-01-19T04:35:06.841Z,7.35
2023-01-19T04:37:35.176Z,6.90
2023-01-19T04:40:08.146Z,7.17
2023-01-19T04:42:36.116Z,6.72
2023-01-19T04:45:04.804Z,7.50
2023-01-19T04:47:33.055Z,7.15
2023-01-19T04:50:05.228Z,8.03
2023-01-19T04:52:38.648Z,7.47
2023-01-19T04:55:11.780Z,9.30
2023-01-19T04:57:39.971Z,8.80
2023-01-19T05:00:09.822Z,7.58
2023-01-19T05:02:38.192Z,7.97
2023-01-19T05:05:07.278Z,8.20
2023-01-19T05:07:35.513Z,7.78
2023-01-19T05:10:04.631Z,7.87
2023-01-19T05:12:35.508Z,7.42
2023-01-19T05:15:07.208Z,7.22
2023-01-19T05:17:42.142Z,6.95
2023-01-19T05:20:16.468Z,6.80
2023-01-19T05:22:53.003Z,6.70
2023-01-19T05:25:21.254Z,7.28
2023-01-19T05:27:49.174Z,7.42
2023-01-19T05:30:17.815Z,7.12
2023-01-19T05:32:48.679Z,8.08
2023-01-19T05:35:20.115Z,7.72
2023-01-19T05:37:46.733Z,8.43
2023-01-19T05:40:14.596Z,8.50
2023-01-19T05:42:42.506Z,8.73
2023-01-19T05:45:12.014Z,9.98
2023-01-19T05:47:40.151Z,9.53
2023-01-19T05:50:08.955Z,11.12
2023-01-19T05:52:37.082Z,10.00
2023-01-19T05:55:06.021Z,11.10
2023-01-19T05:57:34.477Z,11.25
2023-01-19T06:00:04.522Z,11.48
2023-01-19T06:02:35.240Z,10.48
2023-01-19T06:05:04.579Z,10.65
2023-01-19T06:07:34.527Z,10.43
2023-01-19T06:10:02.965Z,12.58
2023-01-19T06:12:31.945Z,12.85
2023-01-19T06:14:59.993Z,22.52
2023-01-19T06:17:28.231Z,18.05
2023-01-19T06:19:57.424Z,11.60
2023-01-19T06:22:25.541Z,10.20
2023-01-19T06:24:54.616Z,10.58
2023-01-19T06:27:23.265Z,9.95
2023-01-19T06:29:51.351Z,10.10
2023-01-19T06:32:20.101Z,11.12
2023-01-19T06:34:49.124Z,12.15
2023-01-19T06:37:17.194Z,11.03
2023-01-19T06:39:45.008Z,8.13
2023-01-19T06:42:12.659Z,7.15
2023-01-19T06:44:42.458Z,7.08
2023-01-19T06:47:15.382Z,5.80
2023-01-19T06:49:41.976Z,5.58
2023-01-19T06:52:11.788Z,6.20
2023-01-19T06:54:39.627Z,7.25
2023-01-19T06:57:09.991Z,9.63
2023-01-19T06:59:38.422Z,11.05
2023-01-19T07:02:26.714Z,13.22
2023-01-19T07:04:36.284Z,16.65
2023-01-19T07:07:04.293Z,12.68
2023-01-19T07:09:32.113Z,20.00
2023-01-19T07:11:59.935Z,18.50
2023-01-19T07:14:29.648Z,10.45
2023-01-19T07:16:57.287Z,8.53
2023-01-19T07:19:25.109Z,7.47
2023-01-19T07:21:52.781Z,7.58
2023-01-19T07:24:21.298Z,7.60
2023-01-19T07:26:50.056Z,8.03
2023-01-19T07:29:17.810Z,8.73
2023-01-19T07:31:48.075Z,9.03
2023-01-19T07:34:16.008Z,8.88
2023-01-19T07:36:43.722Z,7.45
2023-01-19T07:39:11.572Z,7.72
2023-01-19T07:41:39.541Z,8.25
2023-01-19T07:44:08.326Z,8.53
2023-01-19T07:46:36.271Z,7.92
2023-01-19T07:49:04.271Z,7.75
2023-01-19T07:51:32.065Z,7.85
2023-01-19T07:53:59.639Z,8.03
2023-01-19T07:56:30.780Z,8.03
2023-01-19T07:58:59.474Z,8.75
2023-01-19T08:01:27.476Z,7.72
2023-01-19T08:03:55.387Z,8.25
2023-01-19T08:06:35.251Z,10.28
2023-01-19T08:09:05.176Z,12.28
2023-01-19T08:11:33.808Z,13.15
2023-01-19T08:14:01.994Z,14.20
2023-01-19T08:16:29.861Z,13.53
2023-01-19T08:18:57.633Z,13.83
2023-01-19T08:21:25.491Z,11.95
2023-01-19T08:23:57.887Z,11.50
2023-01-19T08:26:33.316Z,12.37
2023-01-19T08:29:05.260Z,12.80
2023-01-19T08:31:33.372Z,12.63
2023-01-19T08:34:01.271Z,13.13
2023-01-19T08:36:30.056Z,13.98
2023-01-19T08:38:57.806Z,13.15
2023-01-19T08:41:25.660Z,12.55
2023-01-19T08:43:55.159Z,12.13
2023-01-19T08:46:22.846Z,11.70
2023-01-19T08:48:50.658Z,12.37
2023-01-19T08:51:19.291Z,12.50
2023-01-19T08:53:47.254Z,13.15
2023-01-19T08:56:15.039Z,14.60
2023-01-19T08:58:53.624Z,13.68
2023-01-19T09:01:18.165Z,15.48
2023-01-19T09:03:46.475Z,16.32
2023-01-19T09:06:19.310Z,16.15
2023-01-19T09:08:47.687Z,15.10
2023-01-19T09:11:17.029Z,14.98
2023-01-19T09:13:44.911Z,14.78
2023-01-19T09:16:14.454Z,14.10
2023-01-19T09:18:42.569Z,14.75
2023-01-19T09:21:10.479Z,18.27
2023-01-19T09:23:38.316Z,20.97
2023-01-19T09:26:06.635Z,25.85
2023-01-19T09:28:34.749Z,29.42
2023-01-19T09:31:09.167Z,28.87
2023-01-19T09:33:37.191Z,27.45
2023-01-19T09:36:05.189Z,26.68
2023-01-19T09:38:33.651Z,26.90
2023-01-19T09:41:01.600Z,19.07
2023-01-19T09:43:54.770Z,17.67
2023-01-19T09:46:36.465Z,21.85
2023-01-19T09:49:21.253Z,11.10
2023-01-19T09:51:50.465Z,13.43
2023-01-19T09:54:35.981Z,9.40
2023-01-19T09:57:10.792Z,4.80
2023-01-19T09:59:38.590Z,4.63
2023-01-19T10:02:30.061Z,5.25
2023-01-19T10:05:06.428Z,4.87
2023-01-19T10:07:47.609Z,4.55
2023-01-19T10:10:22.648Z,4.83
2023-01-19T10:16:34.203Z,4.47
2023-01-19T10:19:35.481Z,5.47
2023-01-19T10:22:25.799Z,4.62
2023-01-19T10:25:05.313Z,5.22
2023-01-19T10:27:37.096Z,4.62
2023-01-19T10:30:09.725Z,3.85
2023-01-19T10:32:39.354Z,4.50
2023-01-19T10:35:19.010Z,5.33
2023-01-19T10:37:47.119Z,4.42
2023-01-19T10:40:37.442Z,4.75
2023-01-19T10:43:44.622Z,5.47
2023-01-19T10:46:24.067Z,3.72
2023-01-19T10:48:54.332Z,3.80
2023-01-19T10:51:22.989Z,4.20
2023-01-19T10:54:03.163Z,5.67
2023-01-19T10:56:34.825Z,4.90
2023-01-19T10:59:06.258Z,5.50
2023-01-19T11:01:36.292Z,4.22
2023-01-19T11:04:29.403Z,3.95
2023-01-19T11:07:05.393Z,4.42
2023-01-19T11:09:34.849Z,5.00
2023-01-19T11:12:02.787Z,4.10
2023-01-19T11:14:31.597Z,5.00
2023-01-19T11:16:59.349Z,5.45
2023-01-19T11:19:32.760Z,5.40
2023-01-19T11:22:21.618Z,5.20
2023-01-19T11:24:50.224Z,6.53
2023-01-19T11:27:21.603Z,4.83
2023-01-19T11:30:01.378Z,4.97
2023-01-19T11:32:29.900Z,5.85
2023-01-19T11:34:59.817Z,6.83
2023-01-19T11:37:34.141Z,6.72
2023-01-19T11:40:06.614Z,5.53
2023-01-19T11:42:36.719Z,5.70
2023-01-19T11:45:12.900Z,5.03
2023-01-19T11:47:48.925Z,4.97
2023-01-19T11:50:31.352Z,4.95
2023-01-19T11:53:24.561Z,4.78
2023-01-19T11:56:15.028Z,4.20
2023-01-19T11:58:46.911Z,3.95
2023-01-19T12:01:29.241Z,4.30
2023-01-19T12:04:16.589Z,3.95
2023-01-19T12:06:55.466Z,7.08
2023-01-19T12:09:30.809Z,4.87
2023-01-19T12:12:24.433Z,4.10
2023-01-19T12:15:03.763Z,4.65
2023-01-19T12:17:45.605Z,4.72
2023-01-19T12:20:30.663Z,5.47
2023-01-19T12:23:04.168Z,5.85
2023-01-19T12:26:08.639Z,6.28
2023-01-19T12:28:43.327Z,4.72
2023-01-19T12:31:18.961Z,4.67
2023-01-19T12:33:47.669Z,4.58
2023-01-19T12:36:37.404Z,6.87
2023-01-19T12:39:19.786Z,14.60
2023-01-19T12:42:04.356Z,7.70
2023-01-19T12:44:33.703Z,6.75
2023-01-19T12:47:13.246Z,5.33
2023-01-19T12:49:55.603Z,8.63
2023-01-19T12:52:35.908Z,6.87
2023-01-19T12:55:24.200Z,7.12
2023-01-19T12:58:12.058Z,9.83
2023-01-19T13:00:43.885Z,13.53
2023-01-19T13:03:29.302Z,9.83
2023-01-19T13:05:57.582Z,10.85
2023-01-19T13:08:49.863Z,13.98
2023-01-19T13:11:19.759Z,19.52
2023-01-19T13:14:02.388Z,9.88
2023-01-19T13:16:38.587Z,6.92
2023-01-19T13:19:20.359Z,4.87
2023-01-19T13:21:49.174Z,4.12
2023-01-19T13:24:23.071Z,3.85
2023-01-19T13:26:55.155Z,5.35
2023-01-19T13:29:41.598Z,4.00
2023-01-19T13:32:21.410Z,5.83
2023-01-19T13:34:57.029Z,3.92
2023-01-19T13:37:33.296Z,4.45
2023-01-19T13:40:02.849Z,9.05
2023-01-19T13:42:41.239Z,3.75
2023-01-19T13:45:30.385Z,4.72
2023-01-19T13:48:02.669Z,6.12
2023-01-19T13:50:34.287Z,3.20
2023-01-19T13:53:04.072Z,3.85
2023-01-19T13:55:31.850Z,3.65
2023-01-19T13:57:59.437Z,3.33
2023-01-19T14:00:30.387Z,2.50
2023-01-19T14:03:06.568Z,2.30
2023-01-19T14:05:38.058Z,3.37
2023-01-19T14:08:14.429Z,4.55
2023-01-19T14:11:01.075Z,3.20
2023-01-19T14:13:33.127Z,4.03
2023-01-19T14:16:05.217Z,3.05
2023-01-19T14:18:36.376Z,5.20
2023-01-19T14:21:11.694Z,5.85
2023-01-19T14:23:57.401Z,5.40
2023-01-19T14:26:46.827Z,5.58
2023-01-19T14:29:34.253Z,5.70
2023-01-19T14:32:27.356Z,6.17
2023-01-19T14:35:03.833Z,5.67
2023-01-19T14:37:37.337Z,7.03
2023-01-19T14:40:14.513Z,7.03
2023-01-19T14:43:00.089Z,10.05
2023-01-19T14:45:36.154Z,10.00
2023-01-19T14:48:16.369Z,9.90
2023-01-19T14:50:57.665Z,15.15
2023-01-19T14:53:25.390Z,15.80
2023-01-19T14:56:04.549Z,15.80
2023-01-19T14:58:40.879Z,19.80
2023-01-19T15:01:15.804Z,15.55
2023-01-19T15:03:45.651Z,15.78
2023-01-19T15:06:17.329Z,30.72
2023-01-19T15:08:46.273Z,17.75
2023-01-19T15:11:33.829Z,9.38
2023-01-19T15:14:02.360Z,6.75
2023-01-19T15:16:34.683Z,7.55
2023-01-19T15:19:03.355Z,6.42
2023-01-19T15:21:31.137Z,7.10
2023-01-19T15:23:59.907Z,6.12
2023-01-19T15:26:28.114Z,6.37
2023-01-19T15:28:57.017Z,6.10
2023-01-19T15:31:27.182Z,5.53
2023-01-19T15:33:55.797Z,6.20
2023-01-19T15:36:26.330Z,4.58
2023-01-19T15:38:56.188Z,4.97
2023-01-19T15:41:29.295Z,4.20
2023-01-19T15:43:57.889Z,4.97
2023-01-19T15:46:26.631Z,4.80
2023-01-19T15:48:54.786Z,6.85
2023-01-19T15:51:25.917Z,4.87
2023-01-19T15:53:55.134Z,3.05
2023-01-19T15:56:27.341Z,2.77
2023-01-19T15:58:56.299Z,3.55
2023-01-19T16:01:34.763Z,4.30
2023-01-19T16:04:06.353Z,4.47
2023-01-19T16:06:34.421Z,4.78
2023-01-19T16:09:03.922Z,4.87
2023-01-19T16:11:34.943Z,5.95
2023-01-19T16:14:03.072Z,5.53
2023-01-19T16:16:31.010Z,6.20
2023-01-19T16:18:58.748Z,6.03
2023-01-19T16:21:26.923Z,5.58
2023-01-19T16:23:55.315Z,3.85
2023-01-19T16:26:34.322Z,3.33
2023-01-19T16:29:09.272Z,4.92
2023-01-19T16:31:39.459Z,7.20
2023-01-19T16:34:09.292Z,6.25
2023-01-19T16:36:40.416Z,7.95
2023-01-19T16:39:14.189Z,8.75
2023-01-19T16:41:47.945Z,9.20
2023-01-19T16:44:17.329Z,7.62
2023-01-19T16:46:50.479Z,10.90
2023-01-19T16:49:22.429Z,11.43
2023-01-19T16:51:52.928Z,15.72
2023-01-19T16:54:25.950Z,6.65
2023-01-19T16:57:00.981Z,3.27
2023-01-19T16:59:31.882Z,2.70
2023-01-19T17:02:00.250Z,3.40
2023-01-19T17:04:29.563Z,3.58
2023-01-19T17:07:03.551Z,3.37
2023-01-19T17:09:32.042Z,3.05
2023-01-19T17:12:00.001Z,3.70
2023-01-19T17:14:29.522Z,1.90
2023-01-19T17:17:02.798Z,5.28
2023-01-19T17:19:31.112Z,5.40
2023-01-19T17:21:59.161Z,5.97
2023-01-19T17:24:27.335Z,5.15
2023-01-19T17:27:04.828Z,5.25
2023-01-19T17:29:35.247Z,2.30
2023-01-19T17:32:05.478Z,3.08
2023-01-19T17:34:33.614Z,5.53
2023-01-19T17:37:02.407Z,3.40
2023-01-19T17:39:32.058Z,4.10
2023-01-19T17:42:01.956Z,3.98
2023-01-19T17:44:30.442Z,2.90
2023-01-19T17:47:00.013Z,3.62
2023-01-19T17:49:37.415Z,2.45
2023-01-19T17:52:05.657Z,2.77
2023-01-19T17:54:33.802Z,2.92
2023-01-19T17:57:02.310Z,2.77
2023-01-19T17:59:32.206Z,1.85
2023-01-19T18:02:00.539Z,2.47
2023-01-19T18:04:32.298Z,1.60
2023-01-19T18:07:00.443Z,6.87
2023-01-19T18:09:29.926Z,12.35
2023-01-19T18:11:58.167Z,10.03
2023-01-19T18:14:26.155Z,8.98
2023-01-19T18:16:54.365Z,8.48
2023-01-19T18:19:25.310Z,3.17
2023-01-19T18:21:53.492Z,6.95
2023-01-19T18:24:21.384Z,4.53
2023-01-19T18:26:51.280Z,4.90
2023-01-19T18:29:20.133Z,5.45
2023-01-19T18:31:48.178Z,9.83
2023-01-19T18:34:16.371Z,8.18
2023-01-19T18:36:47.317Z,8.28
2023-01-19T18:39:19.597Z,11.65
2023-01-19T18:41:48.414Z,7.12
2023-01-19T18:44:18.379Z,6.95
2023-01-19T18:46:47.462Z,8.88
2023-01-19T18:49:17.473Z,9.68
2023-01-19T18:51:45.769Z,10.53
2023-01-19T18:54:13.855Z,10.95
2023-01-19T18:56:42.101Z,10.25
2023-01-19T18:59:11.657Z,8.58
2023-01-19T19:01:40.451Z,5.70
2023-01-19T19:04:08.260Z,5.50
2023-01-19T19:06:36.005Z,4.78
2023-01-19T19:09:04.739Z,5.05
2023-01-19T19:11:32.844Z,4.58
2023-01-19T19:14:02.262Z,4.53
2023-01-19T19:16:31.674Z,50.33
2023-01-19T19:19:00.907Z,21.42
2023-01-19T19:21:28.850Z,17.07
2023-01-19T19:24:10.117Z,17.70
2023-01-19T19:26:38.045Z,20.00
2023-01-19T19:29:06.092Z,22.80
2023-01-19T19:31:33.955Z,19.40
2023-01-19T19:34:01.654Z,21.17
2023-01-19T19:36:29.987Z,19.87
2023-01-19T19:39:13.530Z,17.70
2023-01-19T19:41:42.221Z,19.73
2023-01-19T19:44:14.836Z,24.15
2023-01-19T19:46:42.914Z,19.87
2023-01-19T19:49:11.568Z,16.57
2023-01-19T19:51:41.617Z,18.00
2023-01-19T19:54:09.413Z,17.32
2023-01-19T19:56:38.204Z,18.25
2023-01-19T19:59:07.151Z,21.25
2023-01-19T20:01:35.156Z,23.80
2023-01-19T20:04:10.762Z,21.00
2023-01-19T20:06:44.160Z,17.52
2023-01-19T20:09:13.804Z,17.87
2023-01-19T20:11:43.499Z,16.02
2023-01-19T20:14:12.912Z,25.05
2023-01-19T20:16:40.766Z,22.67
2023-01-19T20:19:09.940Z,34.40
2023-01-19T20:21:41.313Z,16.62
2023-01-19T20:24:16.704Z,19.95
2023-01-19T20:26:52.519Z,19.98
2023-01-19T20:29:20.648Z,20.70
2023-01-19T20:31:54.971Z,9.63
2023-01-19T20:34:27.390Z,14.55
2023-01-19T20:36:56.054Z,16.00
2023-01-19T20:39:24.696Z,28.55
2023-01-19T20:41:53.064Z,12.90
2023-01-19T20:44:24.287Z,10.43
2023-01-19T20:46:53.986Z,13.70
2023-01-19T20:49:24.332Z,17.95
2023-01-19T20:51:53.228Z,17.15
2023-01-19T20:54:26.767Z,13.43
2023-01-19T20:56:56.726Z,10.45
2023-01-19T20:59:24.653Z,9.20
2023-01-19T21:01:52.911Z,8.80
2023-01-19T21:04:20.675Z,16.95
2023-01-19T21:06:48.453Z,10.43
2023-01-19T21:09:18.281Z,8.43
2023-01-19T21:11:52.500Z,8.40
2023-01-19T21:14:21.227Z,8.60
2023-01-19T21:16:50.167Z,7.53
2023-01-19T21:19:18.210Z,8.38
2023-01-19T21:21:46.119Z,7.55
2023-01-19T21:24:14.162Z,8.78
2023-01-19T21:26:42.519Z,9.20
2023-01-19T21:29:33.739Z,19.92
2023-01-19T21:32:20.920Z,24.25
2023-01-19T21:34:48.893Z,16.37
2023-01-19T21:37:16.895Z,17.20
2023-01-19T21:39:45.037Z,22.40
2023-01-19T21:42:15.845Z,23.95
2023-01-19T21:44:43.780Z,26.35
2023-01-19T21:47:11.724Z,20.97
2023-01-19T21:49:39.771Z,15.58
2023-01-19T21:52:11.341Z,13.88
2023-01-19T21:54:40.587Z,11.35
2023-01-19T21:57:09.090Z,8.48
2023-01-19T21:59:37.689Z,8.53
2023-01-19T22:02:05.710Z,9.70
2023-01-19T22:04:35.805Z,11.33
2023-01-19T22:07:03.798Z,9.73
2023-01-19T22:09:36.249Z,8.68
2023-01-19T22:12:05.787Z,6.20
2023-01-19T22:14:37.532Z,6.03
2023-01-19T22:17:11.123Z,5.87
2023-01-19T22:19:39.103Z,5.87
2023-01-19T22:22:09.367Z,4.87
2023-01-19T22:24:39.185Z,3.92
2023-01-19T22:27:08.608Z,4.00
2023-01-19T22:29:36.951Z,3.65
2023-01-19T22:32:05.779Z,3.08
2023-01-19T22:34:33.752Z,5.10
2023-01-19T22:37:02.159Z,6.85
2023-01-19T22:39:33.829Z,4.30
2023-01-19T22:42:14.910Z,5.08
2023-01-19T22:44:58.673Z,4.80
2023-01-19T22:47:32.363Z,5.72
2023-01-19T22:50:10.478Z,6.47
2023-01-19T22:52:38.843Z,7.30
2023-01-19T22:55:10.098Z,6.28
2023-01-19T22:57:41.360Z,4.67
2023-01-19T23:00:12.599Z,4.05
2023-01-19T23:02:42.850Z,3.77
2023-01-19T23:05:11.216Z,3.62
2023-01-19T23:07:41.539Z,3.80
2023-01-19T23:10:11.701Z,4.15
2023-01-19T23:12:42.663Z,4.80
2023-01-19T23:15:11.449Z,6.10
2023-01-19T23:17:41.242Z,5.05
2023-01-19T23:20:11.124Z,4.65
2023-01-19T23:22:45.413Z,3.58
2023-01-19T23:25:22.114Z,3.33
2023-01-19T23:27:57.650Z,2.70
2023-01-19T23:30:30.863Z,2.45
2023-01-19T23:33:04.960Z,2.20
2023-01-19T23:35:54.844Z,2.05
2023-01-19T23:38:22.368Z,2.37
2023-01-19T23:40:51.972Z,2.15
2023-01-19T23:43:20.128Z,2.40
2023-01-19T23:45:49.773Z,1.98
2023-01-19T23:51:49.068Z,2.08
2023-01-19T23:54:17.178Z,2.22
2023-01-19T23:56:45.664Z,2.20
2023-01-19T23:59:16.091Z,2.58
